Time;durP1;ratioP1;P1;durP2;ratioP2;P2;SDS_P1;SDS_P2;PMS_P1;PMS_P2;Temp;Humidity;BMP_temperature;BMP_pressure;BME280_temperature;BME280_humidity;BME280_pressure;Samples;Min_cycle;Max_cycle;Signal;HPM_P1;HPM_P2
2023/03/01 00:01:18;;;;;;;43.85;15.73;;;0.40;99.90;;;;;;4897894;29;20036;-62
2023/03/01 00:03:43;;;;;;;44.80;16.00;;;-0.60;99.90;;;;;;4891767;29;20041;-61
2023/03/01 00:06:10;;;;;;;45.10;15.55;;;-0.60;99.90;;;;;;4897816;29;20264;-61
2023/03/01 00:08:36;;;;;;;41.22;14.13;;;-0.60;99.90;;;;;;4882632;29;20039;-57
2023/03/01 00:11:13;;;;;;;48.83;14.65;;;-0.70;99.90;;;;;;4886711;29;20032;-63
2023/03/01 00:13:41;;;;;;;33.63;15.43;;;-0.70;99.90;;;;;;4901426;29;20390;-59
2023/03/01 00:16:10;;;;;;;33.03;13.93;;;-0.70;99.90;;;;;;4916086;29;20031;-60
2023/03/01 00:18:35;;;;;;;31.95;12.50;;;-0.80;99.90;;;;;;4916047;29;20383;-60
2023/03/01 00:21:01;;;;;;;49.63;17.13;;;-0.80;99.90;;;;;;4904164;29;20085;-62
2023/03/01 00:23:27;;;;;;;36.13;13.07;;;-0.70;99.90;;;;;;4907788;29;20375;-62
2023/03/01 00:25:53;;;;;;;36.25;13.50;;;-0.80;99.90;;;;;;4916447;29;20452;-62
2023/03/01 00:28:19;;;;;;;34.72;12.27;;;-0.80;99.90;;;;;;4899384;29;20107;-63
2023/03/01 00:30:45;;;;;;;24.77;13.05;;;-0.30;99.90;;;;;;4897344;29;20111;-61
2023/03/01 00:33:11;;;;;;;26.52;11.73;;;-0.90;99.90;;;;;;4894390;29;20112;-63
2023/03/01 00:35:37;;;;;;;29.38;12.23;;;-0.90;99.90;;;;;;4878500;29;20037;-61
2023/03/01 00:38:03;;;;;;;29.27;13.10;;;-0.90;99.90;;;;;;4878516;29;20111;-63
2023/03/01 00:40:32;;;;;;;34.65;13.07;;;-0.30;99.90;;;;;;4891856;29;20338;-60
2023/03/01 00:42:57;;;;;;;28.20;13.43;;;-1.00;99.90;;;;;;4894266;29;20475;-57
2023/03/01 00:45:23;;;;;;;28.40;12.80;;;-1.10;99.90;;;;;;4895707;29;20041;-60
2023/03/01 00:47:50;;;;;;;32.65;12.90;;;-1.20;99.90;;;;;;4897150;29;20096;-60
2023/03/01 00:50:17;;;;;;;38.15;14.07;;;-1.10;99.90;;;;;;4888065;29;20079;-60
2023/03/01 00:52:43;;;;;;;38.72;12.90;;;-1.10;99.90;;;;;;4887152;29;20092;-59
2023/03/01 00:55:10;;;;;;;35.42;13.98;;;1.00;99.90;;;;;;4888070;29;20029;-60
2023/03/01 00:57:35;;;;;;;33.13;13.48;;;-1.10;99.90;;;;;;4878412;29;20108;-58
2023/03/01 01:00:04;;;;;;;32.33;13.30;;;-1.10;99.90;;;;;;4885304;29;20223;-60
2023/03/01 01:02:29;;;;;;;27.27;12.90;;;-1.10;99.90;;;;;;4888920;29;20355;-60
2023/03/01 01:04:55;;;;;;;23.17;11.90;;;-1.20;99.90;;;;;;4884395;29;20044;-62
2023/03/01 01:07:20;;;;;;;33.63;14.32;;;-1.70;99.90;;;;;;4896877;29;20104;-59
2023/03/01 01:09:46;;;;;;;29.48;13.35;;;-1.20;99.90;;;;;;4891308;29;20092;-60
2023/03/01 01:12:12;;;;;;;41.55;14.10;;;-1.30;99.90;;;;;;4882948;29;20029;-60
2023/03/01 01:14:38;;;;;;;36.25;14.13;;;-0.50;99.90;;;;;;4879420;29;20025;-59
2023/03/01 01:17:04;;;;;;;43.88;14.30;;;-1.10;99.90;;;;;;4877989;29;20037;-59
2023/03/01 01:19:30;;;;;;;34.53;13.57;;;-1.00;99.90;;;;;;4885293;29;20033;-60
2023/03/01 01:21:56;;;;;;;31.63;14.05;;;-1.20;99.90;;;;;;4880593;29;20032;-59
2023/03/01 01:24:22;;;;;;;30.77;13.57;;;-1.20;99.90;;;;;;4896249;29;20033;-60
2023/03/01 01:26:47;;;;;;;44.30;15.35;;;-1.30;99.90;;;;;;4895173;29;20028;-60
2023/03/01 01:29:13;;;;;;;30.25;14.05;;;-1.50;99.90;;;;;;4877544;29;20033;-63
2023/03/01 01:31:40;;;;;;;38.10;15.13;;;-1.30;99.90;;;;;;4877742;29;20128;-60
2023/03/01 01:34:08;;;;;;;37.50;14.13;;;-1.30;99.90;;;;;;4892540;29;20056;-60
2023/03/01 01:36:34;;;;;;;40.63;14.90;;;-1.30;99.90;;;;;;4896382;29;20415;-60
2023/03/01 01:39:00;;;;;;;37.13;15.90;;;-0.50;99.90;;;;;;4877870;29;20029;-56
2023/03/01 01:41:28;;;;;;;43.20;16.23;;;-1.30;99.90;;;;;;4877645;29;20033;-59
2023/03/01 01:44:12;;;;;;;54.13;16.80;;;-1.30;99.90;;;;;;4894396;29;20515;-62
2023/03/01 01:47:00;;;;;;;42.65;16.52;;;-1.40;99.90;;;;;;4896230;29;20032;-61
2023/03/01 01:49:37;;;;;;;44.20;15.15;;;-1.40;99.90;;;;;;4864316;29;20037;-60
2023/03/01 01:52:35;;;;;;;39.13;15.15;;;-1.40;99.90;;;;;;4880434;29;20550;-57
2023/03/01 01:55:05;;;;;;;43.53;16.00;;;-1.10;99.90;;;;;;4871717;29;20485;-59
2023/03/01 01:57:53;;;;;;;36.38;15.75;;;-1.40;99.90;;;;;;4896175;29;20029;-58
2023/03/01 02:00:26;;;;;;;31.52;15.77;;;-1.40;99.90;;;;;;4888480;29;20432;-61
2023/03/01 02:02:57;;;;;;;45.20;16.10;;;-1.40;99.90;;;;;;4877201;29;20495;-60
2023/03/01 02:05:46;;;;;;;38.75;15.40;;;-1.40;99.90;;;;;;4885159;29;20093;-61
2023/03/01 02:08:14;;;;;;;36.67;15.15;;;-1.30;99.90;;;;;;4896212;29;20093;-59
2023/03/01 02:10:40;;;;;;;39.50;16.08;;;-1.40;99.90;;;;;;4879911;29;20037;-61
2023/03/01 02:13:07;;;;;;;37.80;14.52;;;-1.20;99.90;;;;;;4884491;29;20037;-60
2023/03/01 02:15:38;;;;;;;41.33;15.65;;;-0.70;99.90;;;;;;4877569;29;20041;-60
2023/03/01 02:18:04;;;;;;;30.65;14.95;;;-1.30;99.90;;;;;;4878433;29;20067;-63
2023/03/01 02:20:30;;;;;;;43.78;17.23;;;-1.30;99.90;;;;;;4877639;29;20060;-62
2023/03/01 02:22:56;;;;;;;37.58;15.63;;;-1.20;99.90;;;;;;4897304;29;20071;-59
2023/03/01 02:25:30;;;;;;;39.90;16.75;;;-1.30;99.90;;;;;;4899864;29;20029;-59
2023/03/01 02:27:58;;;;;;;;;;;-1.30;99.90;;;;;;4882200;29;20029;-60
2023/03/01 02:30:25;;;;;;;44.25;15.32;;;-1.30;99.90;;;;;;4880700;29;19912;-62
2023/03/01 02:32:52;;;;;;;42.22;16.35;;;-1.30;99.90;;;;;;4896885;29;20064;-62
2023/03/01 02:35:19;;;;;;;39.28;16.60;;;-1.10;99.90;;;;;;4918380;29;20442;-57
2023/03/01 02:37:46;;;;;;;34.47;15.57;;;-1.10;99.90;;;;;;4918430;29;20087;-63
2023/03/01 02:40:17;;;;;;;37.28;15.75;;;-1.30;99.90;;;;;;4901761;29;20487;-61
2023/03/01 02:42:57;;;;;;;41.90;15.10;;;-1.10;99.90;;;;;;4898907;29;20036;-60
2023/03/01 02:45:23;;;;;;;35.05;16.00;;;-1.40;99.90;;;;;;4897757;29;20036;-61
2023/03/01 02:47:49;;;;;;;43.97;17.55;;;;;;;;;;4899585;29;20033;-60
2023/03/01 02:50:30;;;;;;;35.13;15.98;;;-0.90;99.90;;;;;;4884221;29;20121;-61
2023/03/01 02:53:06;;;;;;;32.75;15.50;;;-1.40;99.90;;;;;;4880471;29;20486;-60
2023/03/01 02:55:32;;;;;;;44.38;17.48;;;-1.30;99.90;;;;;;4896971;29;20032;-61
2023/03/01 02:58:01;;;;;;;33.97;14.98;;;-1.60;99.90;;;;;;4899028;29;20080;-59
2023/03/01 03:00:35;;;;;;;37.75;17.38;;;-1.60;99.90;;;;;;4893930;29;20108;-62
2023/03/01 03:03:01;;;;;;;46.42;18.02;;;;;;;;;;4898609;29;20068;-61
2023/03/01 03:05:30;;;;;;;45.22;17.58;;;-1.60;99.90;;;;;;4883831;29;20102;-62
2023/03/01 03:07:57;;;;;;;38.28;17.33;;;-1.40;99.90;;;;;;4880331;29;20025;-60
2023/03/01 03:10:28;;;;;;;43.53;17.17;;;-1.40;99.90;;;;;;4893657;29;20044;-60
2023/03/01 03:12:59;;;;;;;44.58;16.65;;;-1.40;99.90;;;;;;4898319;29;20107;-60
2023/03/01 03:15:27;;;;;;;43.35;18.08;;;-1.40;99.90;;;;;;4885145;29;20040;-61
2023/03/01 03:17:54;;;;;;;41.03;16.30;;;-1.40;99.90;;;;;;4881389;29;20021;-58
2023/03/01 03:20:22;;;;;;;36.45;15.30;;;-1.40;99.90;;;;;;4894184;29;20044;-60
2023/03/01 03:22:50;;;;;;;41.20;16.92;;;-1.40;99.90;;;;;;4898440;29;20056;-60
2023/03/01 03:25:18;;;;;;;43.85;17.08;;;-1.40;99.90;;;;;;4887178;29;20032;-62
2023/03/01 03:27:45;;;;;;;41.60;16.17;;;-1.40;99.90;;;;;;4879706;29;20033;-61
2023/03/01 03:30:13;;;;;;;51.53;16.45;;;-1.40;99.90;;;;;;4881755;29;20116;-59
2023/03/01 03:32:40;;;;;;;42.00;16.85;;;-1.40;99.90;;;;;;4892843;29;20111;-58
2023/03/01 03:35:11;;;;;;;48.55;16.95;;;-1.40;99.90;;;;;;4880277;29;20160;-63
2023/03/01 03:40:22;;;;;;;46.67;16.13;;;;;;;;;;4879526;29;20123;-56
2023/03/01 03:42:48;;;;;;;32.63;16.20;;;;;;;;;;4895070;29;20024;-59
2023/03/01 03:45:18;;;;;;;36.97;16.33;;;-1.40;99.90;;;;;;4890312;29;20049;-59
2023/03/01 03:47:44;;;;;;;42.13;17.27;;;;;;;;;;4889351;29;20028;-63
2023/03/01 03:50:12;;;;;;;47.53;17.52;;;-1.40;99.90;;;;;;4881475;29;20025;-60
2023/03/01 03:52:38;;;;;;;41.65;16.70;;;;;;;;;;4897752;29;20024;-61
2023/03/01 03:55:10;;;;;;;37.80;17.55;;;-1.40;99.90;;;;;;4885885;29;20084;-62
2023/03/01 03:57:37;;;;;;;48.55;16.98;;;-1.30;99.90;;;;;;4916681;29;20494;-60
2023/03/01 04:00:12;;;;;;;42.25;15.90;;;-0.90;99.90;;;;;;4894276;29;20468;-62
2023/03/01 04:02:39;;;;;;;47.10;16.70;;;-1.60;99.90;;;;;;4879219;29;20460;-57
2023/03/01 04:05:06;;;;;;;40.13;16.60;;;-1.40;99.90;;;;;;4892663;29;20029;-59
2023/03/01 04:07:32;;;;;;;45.47;17.10;;;;;;;;;;4897796;29;20047;-62
2023/03/01 04:09:58;;;;;;;37.45;17.00;;;;;;;;;;4885219;29;20483;-59
2023/03/01 04:12:24;;;;;;;39.47;17.17;;;;;;;;;;4879017;29;20089;-62
2023/03/01 04:14:50;;;;;;;41.85;16.35;;;;;;;;;;4890404;29;20025;-60
2023/03/01 04:17:16;;;;;;;39.83;16.15;;;;;;;;;;4897849;29;20048;-60
2023/03/01 04:19:43;;;;;;;44.47;16.17;;;;;;;;;;4896132;29;20040;-62
2023/03/01 04:22:11;;;;;;;47.85;17.92;;;-1.60;99.90;;;;;;4889757;29;20037;-60
2023/03/01 04:24:36;;;;;;;47.60;18.38;;;-1.50;99.90;;;;;;4883819;29;20102;-60
2023/03/01 04:27:02;;;;;;;52.00;16.60;;;;;;;;;;4878959;29;20024;-54
2023/03/01 04:29:28;;;;;;;47.35;16.55;;;;;;;;;;4881439;29;20068;-56
2023/03/01 04:31:54;;;;;;;46.15;17.45;;;;;;;;;;4897940;29;20491;-59
2023/03/01 04:34:20;;;;;;;41.88;16.85;;;;;;;;;;4896714;29;20032;-60
2023/03/01 04:36:46;;;;;;;42.90;17.38;;;-1.60;99.90;;;;;;4879575;29;20591;-60
2023/03/01 04:39:12;;;;;;;39.67;17.60;;;-1.60;99.90;;;;;;4880580;29;20025;-61
2023/03/01 04:41:39;;;;;;;36.20;16.55;;;-0.80;99.90;;;;;;4889249;29;20036;-63
2023/03/01 04:44:05;;;;;;;40.92;18.42;;;-2.20;99.90;;;;;;4895085;29;20514;-60
2023/03/01 04:46:31;;;;;;;51.65;19.30;;;-1.60;99.90;;;;;;4897258;29;20033;-63
2023/03/01 04:48:56;;;;;;;42.78;19.58;;;-1.80;99.90;;;;;;4884285;29;20177;-60
2023/03/01 04:51:22;;;;;;;46.92;18.65;;;-1.60;99.90;;;;;;4896706;29;20035;-62
2023/03/01 04:53:48;;;;;;;46.58;19.15;;;-1.70;99.90;;;;;;4883929;29;20036;-58
2023/03/01 04:56:14;;;;;;;47.78;19.85;;;-1.70;99.90;;;;;;4878156;29;20112;-63
2023/03/01 04:58:39;;;;;;;46.45;18.63;;;-1.70;99.90;;;;;;4879152;29;20037;-62
2023/03/01 05:01:17;;;;;;;47.40;18.65;;;-1.70;99.90;;;;;;4879202;29;20482;-59
2023/03/01 05:03:52;;;;;;;43.85;18.70;;;-1.60;99.90;;;;;;4892585;29;20490;-61
2023/03/01 05:06:19;;;;;;;50.45;19.63;;;-1.70;99.90;;;;;;4892006;29;20033;-63
2023/03/01 05:08:45;;;;;;;40.53;18.92;;;-1.80;99.90;;;;;;4877830;29;20033;-60
2023/03/01 05:11:11;;;;;;;46.67;19.52;;;;;;;;;;4880385;29;20084;-59
2023/03/01 05:13:38;;;;;;;47.42;19.70;;;-1.70;99.90;;;;;;4881978;29;20049;-58
2023/03/01 05:16:06;;;;;;;51.55;20.20;;;-2.40;99.90;;;;;;4879214;29;20049;-61
2023/03/01 05:18:33;;;;;;;48.92;19.75;;;-1.80;99.90;;;;;;4906375;23;20053;-61
2023/03/01 05:21:08;;;;;;;56.30;20.77;;;-1.70;99.90;;;;;;4908371;29;20091;-65
2023/03/01 05:23:34;;;;;;;63.10;22.45;;;;;;;;;;4906362;29;20084;-65
2023/03/01 05:26:02;;;;;;;54.05;21.23;;;0.70;99.90;;;;;;4896868;29;20037;-64
2023/03/01 05:28:28;;;;;;;57.53;22.02;;;-1.70;99.90;;;;;;4908798;29;20079;-64
2023/03/01 05:30:54;;;;;;;60.55;22.58;;;-2.20;99.90;;;;;;4915238;29;20028;-63
2023/03/01 05:33:21;;;;;;;62.42;20.60;;;-1.70;99.90;;;;;;4898133;29;20521;-65
2023/03/01 05:35:48;;;;;;;62.80;22.10;;;-1.80;99.90;;;;;;4915406;29;20036;-64
2023/03/01 05:38:14;;;;;;;45.83;20.00;;;;;;;;;;4915327;29;20024;-65
2023/03/01 05:40:45;;;;;;;51.85;19.95;;;-1.70;99.90;;;;;;4902326;29;20040;-65
2023/03/01 05:43:12;;;;;;;52.20;20.33;;;-1.70;99.90;;;;;;4896684;29;20028;-64
2023/03/01 05:45:38;;;;;;;50.00;20.38;;;-1.70;99.90;;;;;;4896812;29;20032;-67
2023/03/01 05:48:06;;;;;;;58.08;21.70;;;-1.70;99.90;;;;;;4896881;29;20031;-63
2023/03/01 05:50:43;;;;;;;43.97;19.33;;;-1.80;99.90;;;;;;4897346;29;20123;-65
2023/03/01 05:53:17;;;;;;;49.95;19.63;;;-1.90;99.90;;;;;;4897128;29;20040;-63
2023/03/01 05:55:44;;;;;;;60.17;20.45;;;-1.70;99.90;;;;;;4880160;29;20028;-64
2023/03/01 05:58:15;;;;;;;54.70;20.27;;;-1.80;99.90;;;;;;4896876;29;20657;-61
2023/03/01 06:00:43;;;;;;;56.42;21.60;;;-1.70;99.90;;;;;;4896140;29;20104;-64
2023/03/01 06:03:11;;;;;;;56.60;22.60;;;-1.60;99.90;;;;;;4896376;29;20402;-63
2023/03/01 06:05:37;;;;;;;62.58;23.13;;;-1.60;99.90;;;;;;4896333;29;20037;-63
2023/03/01 06:08:03;;;;;;;49.45;21.40;;;-1.70;99.90;;;;;;4896570;29;20115;-66
2023/03/01 06:10:29;;;;;;;52.92;21.55;;;-1.50;99.90;;;;;;4896309;29;20033;-65
2023/03/01 06:12:55;;;;;;;57.58;22.20;;;-0.90;99.90;;;;;;4896202;29;20029;-66
2023/03/01 06:15:22;;;;;;;59.67;22.85;;;;;;;;;;4896113;29;20123;-65
2023/03/01 06:17:48;;;;;;;59.15;24.08;;;-1.50;99.90;;;;;;4913865;29;20028;-65
2023/03/01 06:20:17;;;;;;;55.53;21.15;;;-1.60;99.90;;;;;;4914880;29;20036;-63
2023/03/01 06:22:43;;;;;;;63.35;23.13;;;-1.70;99.90;;;;;;4914749;29;20058;-66
2023/03/01 06:25:10;;;;;;;57.47;21.88;;;-1.40;99.90;;;;;;4897920;29;20032;-66
2023/03/01 06:27:36;;;;;;;53.75;21.50;;;;;;;;;;4915612;29;20074;-63
2023/03/01 06:30:02;;;;;;;66.35;23.48;;;;;;;;;;4915170;29;20359;-66
2023/03/01 06:32:28;;;;;;;58.35;22.60;;;;;;;;;;4915390;29;20032;-67
2023/03/01 06:34:54;;;;;;;74.22;22.25;;;;;;;;;;4915482;29;20032;-64
2023/03/01 06:37:21;;;;;;;46.72;20.85;;;;;;;;;;4915002;29;20148;-64
2023/03/01 06:39:47;;;;;;;48.45;20.27;;;;;;;;;;4915337;29;20024;-67
2023/03/01 06:42:13;;;;;;;47.03;20.63;;;;;;;;;;4894652;29;20023;-62
2023/03/01 06:44:39;;;;;;;57.65;21.58;;;-1.30;99.90;;;;;;4883989;29;20029;-67
2023/03/01 06:47:05;;;;;;;60.90;21.73;;;;;;;;;;4896155;29;20470;-64
2023/03/01 06:49:31;;;;;;;59.85;22.48;;;-1.20;99.90;;;;;;4876944;29;20025;-66
2023/03/01 06:51:57;;;;;;;43.47;20.08;;;-1.20;99.90;;;;;;4891386;29;20089;-60
2023/03/01 06:54:23;;;;;;;53.72;23.40;;;-1.10;99.90;;;;;;4879383;29;20056;-66
2023/03/01 06:56:49;;;;;;;56.50;22.25;;;-1.20;99.90;;;;;;4886761;29;20073;-64
2023/03/01 06:59:16;;;;;;;62.10;22.92;;;-1.30;99.90;;;;;;4895381;29;20116;-63
2023/03/01 07:01:42;;;;;;;54.22;20.13;;;;;;;;;;4904971;29;20056;-67
2023/03/01 07:04:08;;;;;;;50.45;21.40;;;;;;;;;;4891553;29;20080;-63
2023/03/01 07:06:33;;;;;;;52.13;20.85;;;-1.00;99.90;;;;;;4896477;29;20044;-62
2023/03/01 07:08:59;;;;;;;48.58;20.48;;;;;;;;;;4898911;29;20111;-65
2023/03/01 07:11:26;;;;;;;56.05;22.98;;;;;;;;;;4899153;29;20475;-66
2023/03/01 07:13:51;;;;;;;53.13;22.70;;;-0.80;99.90;;;;;;4901739;29;20124;-66
2023/03/01 07:16:17;;;;;;;53.33;22.30;;;;;;;;;;4898918;29;20052;-64
2023/03/01 07:18:43;;;;;;;67.97;22.20;;;;;;;;;;4905807;29;20075;-66
2023/03/01 07:21:12;;;;;;;58.40;21.77;;;-0.70;99.90;;;;;;4899141;29;20035;-65
2023/03/01 07:23:38;;;;;;;57.63;23.98;;;;;;;;;;4909139;29;20043;-62
2023/03/01 07:26:04;;;;;;;57.88;23.20;;;;;;;;;;4899347;29;20025;-65
2023/03/01 21:29:13;;;;;;;34.53;12.95;;;2.40;99.90;;;;;;4930168;23;20070;-63
2023/03/01 21:31:39;;;;;;;30.98;11.52;;;2.50;99.90;;;;;;4904535;29;20494;-61
2023/03/01 21:34:05;;;;;;;35.63;13.75;;;2.40;99.90;;;;;;4908161;29;20112;-63
2023/03/01 21:36:32;;;;;;;39.83;12.77;;;2.30;99.90;;;;;;4566360;29;9999781;-64
2023/03/01 21:38:59;;;;;;;39.38;13.48;;;2.40;99.90;;;;;;4896035;29;20035;-64
2023/03/01 21:41:28;;;;;;;43.38;15.00;;;2.30;99.90;;;;;;4581547;23;10000001;-66
2023/03/01 21:43:56;;;;;;;38.97;13.65;;;2.30;99.90;;;;;;4906282;29;20147;-62
2023/03/01 21:46:24;;;;;;;43.00;13.93;;;2.20;99.90;;;;;;4903911;29;20405;-65
2023/03/01 21:48:51;;;;;;;37.78;12.98;;;2.20;99.90;;;;;;4905638;29;20088;-65
2023/03/01 21:51:19;;;;;;;44.97;13.70;;;3.10;99.90;;;;;;4912118;29;20064;-67
2023/03/01 21:53:45;;;;;;;41.17;13.35;;;2.20;99.90;;;;;;4913046;29;20403;-66
2023/03/01 21:56:19;;;;;;;45.63;13.18;;;2.20;99.90;;;;;;4895973;29;20338;-65
2023/03/01 21:58:45;;;;;;;;;;;2.10;99.90;;;;;;4894167;29;20763;-66
2023/03/01 22:01:14;;;;;;;33.50;13.38;;;2.10;99.90;;;;;;4881518;29;19926;-67
2023/03/01 22:03:45;;;;;;;49.30;15.13;;;2.10;99.90;;;;;;4895474;29;20068;-65
2023/03/01 22:06:21;;;;;;;56.25;18.55;;;2.00;99.90;;;;;;4904495;29;20237;-62
2023/03/01 22:08:54;;;;;;;47.13;17.88;;;2.00;99.90;;;;;;4904417;29;20024;-64
2023/03/01 22:11:20;;;;;;;52.28;19.60;;;2.40;99.90;;;;;;4891416;29;20360;-65
2023/03/01 22:13:48;;;;;;;54.53;18.20;;;2.60;99.90;;;;;;4902953;29;20299;-66
2023/03/01 22:16:14;;;;;;;58.33;19.52;;;2.00;99.90;;;;;;4895708;29;20016;-67
2023/03/01 22:18:40;;;;;;;69.88;20.95;;;1.90;99.90;;;;;;4899541;29;20036;-66
2023/03/01 22:21:07;;;;;;;59.17;19.52;;;3.10;99.90;;;;;;4890183;29;20036;-67
2023/03/01 22:23:34;;;;;;;64.78;21.02;;;2.00;99.90;;;;;;4896141;29;20514;-66
2023/03/01 22:26:01;;;;;;;62.63;19.88;;;2.00;99.90;;;;;;4894847;29;20032;-66
2023/03/01 22:28:28;;;;;;;64.63;19.10;;;1.90;99.90;;;;;;4894523;29;20227;-65
2023/03/01 22:30:54;;;;;;;67.18;19.70;;;2.00;99.90;;;;;;4901969;29;20346;-65
2023/03/01 22:33:19;;;;;;;51.28;18.13;;;1.70;99.90;;;;;;4893082;29;20025;-67
2023/03/01 22:35:45;;;;;;;61.65;18.20;;;1.90;99.90;;;;;;4899232;29;20139;-67
2023/03/01 22:38:11;;;;;;;60.60;17.58;;;1.90;99.90;;;;;;4904741;29;20038;-66
2023/03/01 22:40:37;;;;;;;61.90;17.65;;;;;;;;;;4882091;29;20048;-66
2023/03/01 22:43:03;;;;;;;44.00;15.65;;;2.00;99.90;;;;;;4562206;29;10000052;-66
2023/03/01 22:45:31;;;;;;;56.53;18.10;;;1.90;99.90;;;;;;4903896;29;20028;-66
2023/03/01 22:47:58;;;;;;;60.65;17.63;;;2.00;99.90;;;;;;4911592;29;20040;-65
2023/03/01 22:50:25;;;;;;;58.22;17.70;;;3.60;99.90;;;;;;4896576;29;20028;-65
2023/03/01 22:52:51;;;;;;;49.30;17.23;;;1.90;99.90;;;;;;4903827;29;20562;-66
2023/03/01 22:55:17;;;;;;;52.30;17.17;;;1.90;99.90;;;;;;4889873;29;20115;-66
2023/03/01 22:57:42;;;;;;;68.18;18.27;;;1.80;99.90;;;;;;4906793;29;20032;-67
2023/03/01 23:00:11;;;;;;;57.72;18.23;;;2.40;99.90;;;;;;4904818;29;20709;-66
2023/03/01 23:02:40;;;;;;;57.85;19.60;;;1.70;99.90;;;;;;4899578;29;20115;-67
2023/03/01 23:05:07;;;;;;;63.15;19.13;;;1.70;99.90;;;;;;4913299;29;20088;-67
2023/03/01 23:07:32;;;;;;;55.47;18.48;;;1.60;99.90;;;;;;4891320;29;20040;-66
2023/03/01 23:10:00;;;;;;;54.30;19.13;;;1.60;99.90;;;;;;4899741;29;20504;-66
2023/03/01 23:12:27;;;;;;;80.75;21.27;;;1.70;99.90;;;;;;4899837;29;20032;-66
2023/03/01 23:14:53;;;;;;;68.60;20.50;;;1.40;99.90;;;;;;4899579;29;20044;-68
2023/03/01 23:17:19;;;;;;;61.05;20.73;;;1.90;99.90;;;;;;4906265;29;20059;-65
2023/03/01 23:19:44;;;;;;;59.95;19.77;;;1.50;99.90;;;;;;4918491;29;20024;-67
2023/03/01 23:22:10;;;;;;;82.60;22.20;;;1.40;99.90;;;;;;4917880;29;20536;-67
2023/03/01 23:24:36;;;;;;;79.75;24.08;;;1.20;99.90;;;;;;4903285;29;20551;-64
2023/03/01 23:27:02;;;;;;;71.05;21.33;;;1.50;99.90;;;;;;4917844;29;20099;-66
2023/03/01 23:29:28;;;;;;;76.28;21.95;;;1.30;99.90;;;;;;4910927;29;20033;-62
2023/03/01 23:31:56;;;;;;;69.15;23.98;;;1.40;99.90;;;;;;4898733;29;20040;-67
2023/03/01 23:34:22;;;;;;;74.63;23.08;;;;;;;;;;4899029;29;20028;-64
2023/03/01 23:36:51;;;;;;;80.72;24.70;;;1.10;99.90;;;;;;4898906;29;20047;-67
2023/03/01 23:39:17;;;;;;;79.55;23.67;;;;;;;;;;4899255;29;20029;-66
2023/03/01 23:41:43;;;;;;;97.45;25.50;;;;;;;;;;4906598;29;20502;-66
2023/03/01 23:44:16;;;;;;;77.22;24.48;;;1.10;99.90;;;;;;4907390;29;20040;-66
2023/03/01 23:46:42;;;;;;;88.43;25.65;;;;;;;;;;4898749;29;20032;-67
2023/03/01 23:49:11;;;;;;;73.32;23.52;;;1.00;99.90;;;;;;4897322;29;20033;-67
2023/03/01 23:51:40;;;;;;;71.93;24.67;;;1.00;99.90;;;;;;4898319;29;20140;-66
2023/03/01 23:54:06;;;;;;;82.32;25.50;;;;;;;;;;4898580;29;20028;-66
2023/03/01 23:56:34;;;;;;;82.70;25.17;;;;;;;;;;4898479;29;20028;-67
2023/03/01 23:59:02;;;;;;;74.03;22.88;;;;;;;;;;4898008;29;20024;-66
